createdAt,value
2018-11-05T00:01:32.431Z,40.70
2018-11-05T00:04:04.488Z,38.27
2018-11-05T00:06:36.439Z,36.10
2018-11-05T00:09:09.435Z,35.90
2018-11-05T00:11:41.384Z,32.70
2018-11-05T00:14:13.480Z,38.67
2018-11-05T00:16:45.484Z,38.90
2018-11-05T00:19:17.513Z,36.80
2018-11-05T00:21:49.475Z,39.93
2018-11-05T00:24:21.441Z,40.47
2018-11-05T00:26:53.410Z,35.03
2018-11-05T00:29:25.376Z,42.93
2018-11-05T00:31:57.343Z,35.93
2018-11-05T00:34:29.353Z,38.47
2018-11-05T00:37:01.327Z,35.47
2018-11-05T00:39:33.338Z,36.73
2018-11-05T00:42:05.323Z,39.77
2018-11-05T00:44:37.410Z,33.00
2018-11-05T00:47:09.363Z,37.07
2018-11-05T00:49:41.362Z,37.50
2018-11-05T00:52:13.327Z,32.77
2018-11-05T00:54:45.295Z,30.50
2018-11-05T00:57:17.271Z,34.17
2018-11-05T00:59:49.384Z,32.00
2018-11-05T01:02:21.374Z,34.63
2018-11-05T01:04:53.383Z,39.57
2018-11-05T01:07:25.455Z,39.20
2018-11-05T01:09:57.435Z,36.77
2018-11-05T01:12:29.402Z,36.17
2018-11-05T01:15:01.427Z,40.63
2018-11-05T01:17:33.355Z,39.70
2018-11-05T01:20:05.889Z,41.80
2018-11-05T01:22:38.190Z,35.30
2018-11-05T01:25:10.315Z,38.80
2018-11-05T01:27:42.280Z,37.00
2018-11-05T01:30:20.959Z,36.53
2018-11-05T01:32:52.927Z,40.37
2018-11-05T01:35:24.898Z,44.03
2018-11-05T01:37:56.845Z,41.23
2018-11-05T01:40:28.832Z,41.00
2018-11-05T01:43:00.815Z,39.40
2018-11-05T01:45:32.827Z,37.70
2018-11-05T01:48:05.159Z,34.50
2018-11-05T01:50:37.227Z,35.23
2018-11-05T01:53:09.212Z,33.13
2018-11-05T01:55:41.262Z,32.13
2018-11-05T01:58:13.250Z,33.07
2018-11-05T02:00:45.222Z,29.50
2018-11-05T02:03:17.263Z,35.17
2018-11-05T02:05:49.262Z,30.17
2018-11-05T02:08:21.247Z,30.37
2018-11-05T02:10:53.262Z,32.20
2018-11-05T02:13:25.375Z,36.77
2018-11-05T02:15:57.340Z,31.42
2018-11-05T02:18:29.300Z,31.33
2018-11-05T02:21:01.304Z,30.62
2018-11-05T02:23:33.291Z,37.70
2018-11-05T02:26:05.766Z,34.50
2018-11-05T02:28:37.759Z,31.00
2018-11-05T02:31:09.768Z,31.20
2018-11-05T02:33:41.776Z,31.48
2018-11-05T02:36:13.791Z,28.17
2018-11-05T02:38:45.785Z,23.42
2018-11-05T02:41:17.843Z,19.57
2018-11-05T02:43:49.831Z,23.20
2018-11-05T02:46:21.824Z,18.02
2018-11-05T02:48:53.890Z,21.85
2018-11-05T02:51:25.886Z,21.33
2018-11-05T02:53:57.903Z,20.12
2018-11-05T02:56:29.888Z,16.85
2018-11-05T02:59:01.863Z,18.12
2018-11-05T03:01:33.827Z,18.98
2018-11-05T03:04:05.935Z,18.37
2018-11-05T03:06:37.918Z,16.93
2018-11-05T03:09:11.229Z,19.10
2018-11-05T03:11:43.257Z,17.15
2018-11-05T03:14:15.237Z,17.42
2018-11-05T03:16:47.222Z,18.85
2018-11-05T03:19:19.207Z,21.95
2018-11-05T03:21:51.195Z,16.00
2018-11-05T03:24:23.159Z,16.97
2018-11-05T03:26:55.163Z,19.07
2018-11-05T03:29:27.159Z,19.30
2018-11-05T03:31:59.136Z,18.57
2018-11-05T03:34:31.165Z,18.55
2018-11-05T03:37:03.284Z,18.70
2018-11-05T03:39:35.275Z,21.35
2018-11-05T03:42:07.290Z,20.88
2018-11-05T03:44:39.315Z,22.42
2018-11-05T03:47:11.308Z,23.85
2018-11-05T03:49:43.320Z,17.35
2018-11-05T03:52:15.315Z,21.70
2018-11-05T03:54:47.311Z,22.58
2018-11-05T03:57:19.327Z,22.60
2018-11-05T03:59:51.319Z,23.83
2018-11-05T04:02:23.335Z,25.60
2018-11-05T04:04:55.309Z,23.32
2018-11-05T04:07:27.315Z,20.72
2018-11-05T04:09:59.332Z,24.72
2018-11-05T04:12:31.346Z,20.35
2018-11-05T04:15:03.478Z,26.57
2018-11-05T04:17:35.511Z,24.37
2018-11-05T04:20:09.320Z,23.55
2018-11-05T04:22:42.193Z,25.95
2018-11-05T04:25:14.201Z,21.87
2018-11-05T04:27:46.279Z,23.02
2018-11-05T04:30:18.193Z,29.25
2018-11-05T04:32:50.192Z,20.37
2018-11-05T04:35:22.164Z,20.57
2018-11-05T04:37:54.162Z,23.55
2018-11-05T04:40:26.191Z,22.45
2018-11-05T04:42:58.177Z,21.05
2018-11-05T04:45:30.196Z,24.15
2018-11-05T04:48:02.171Z,23.18
2018-11-05T04:50:34.152Z,22.75
2018-11-05T04:53:06.134Z,23.52
2018-11-05T04:55:38.203Z,17.07
2018-11-05T04:58:10.266Z,19.23
2018-11-05T05:00:42.239Z,20.55
2018-11-05T05:03:14.250Z,18.80
2018-11-05T05:05:46.224Z,22.65
2018-11-05T05:08:18.190Z,19.45
2018-11-05T05:10:50.190Z,22.15
2018-11-05T05:13:22.170Z,19.45
2018-11-05T05:15:54.144Z,18.50
2018-11-05T05:18:26.185Z,18.80
2018-11-05T05:20:58.211Z,23.07
2018-11-05T05:23:30.184Z,20.85
2018-11-05T05:26:02.268Z,19.35
2018-11-05T05:28:34.469Z,18.20
2018-11-05T05:31:06.683Z,24.12
2018-11-05T05:33:38.693Z,18.62
2018-11-05T05:36:10.737Z,19.52
2018-11-05T05:38:42.748Z,17.70
2018-11-05T05:41:14.813Z,19.87
2018-11-05T05:43:46.758Z,17.73
2018-11-05T05:46:18.756Z,20.62
2018-11-05T05:48:50.769Z,20.45
2018-11-05T05:51:22.779Z,21.57
2018-11-05T05:53:54.779Z,22.35
2018-11-05T05:56:26.746Z,20.55
2018-11-05T05:58:58.759Z,20.20
2018-11-05T06:01:30.728Z,19.62
2018-11-05T06:04:02.760Z,22.22
2018-11-05T06:06:34.834Z,19.92
2018-11-05T06:09:08.110Z,20.30
2018-11-05T06:11:40.120Z,19.82
2018-11-05T06:14:12.149Z,23.67
2018-11-05T06:16:44.155Z,22.73
2018-11-05T06:19:16.130Z,21.68
2018-11-05T06:21:48.181Z,18.23
2018-11-05T06:24:20.114Z,20.75
2018-11-05T06:26:52.117Z,19.52
2018-11-05T06:29:24.123Z,20.37
2018-11-05T06:31:56.945Z,21.95
2018-11-05T06:34:28.938Z,19.82
2018-11-05T06:37:00.940Z,21.65
2018-11-05T06:39:32.997Z,20.57
2018-11-05T06:42:04.963Z,19.35
2018-11-05T06:44:37.004Z,20.50
2018-11-05T06:47:08.970Z,20.10
2018-11-05T06:49:40.972Z,20.12
2018-11-05T06:52:12.974Z,22.45
2018-11-05T06:54:44.956Z,19.65
2018-11-05T06:57:16.970Z,22.30
2018-11-05T06:59:48.955Z,22.25
2018-11-05T07:02:20.942Z,21.15
2018-11-05T07:04:52.960Z,19.30
2018-11-05T07:07:24.958Z,23.98
2018-11-05T07:09:56.995Z,23.27
2018-11-05T07:12:30.013Z,20.12
2018-11-05T07:15:02.230Z,20.93
2018-11-05T07:17:34.280Z,18.27
2018-11-05T07:20:08.519Z,20.23
2018-11-05T07:22:40.567Z,21.00
2018-11-05T07:25:13.601Z,23.70
2018-11-05T07:27:45.728Z,18.60
2018-11-05T07:30:20.043Z,20.72
2018-11-05T07:32:53.445Z,18.57
2018-11-05T07:35:25.467Z,19.25
2018-11-05T07:37:57.512Z,20.88
2018-11-05T07:40:29.544Z,19.57
2018-11-05T07:43:01.534Z,20.27
2018-11-05T07:45:33.526Z,18.75
2018-11-05T07:48:05.523Z,22.40
2018-11-05T07:50:39.575Z,19.30
2018-11-05T07:53:11.580Z,20.10
2018-11-05T07:55:43.618Z,20.60
2018-11-05T07:58:15.587Z,21.30
2018-11-05T08:00:48.442Z,17.17
2018-11-05T08:03:20.430Z,19.10
2018-11-05T08:05:52.534Z,20.17
2018-11-05T08:08:24.588Z,17.93
2018-11-05T08:10:56.559Z,20.23
2018-11-05T08:13:28.551Z,19.80
2018-11-05T08:16:00.537Z,19.80
2018-11-05T08:18:32.534Z,18.47
2018-11-05T08:21:04.611Z,20.57
2018-11-05T08:23:36.634Z,17.83
2018-11-05T08:26:08.639Z,17.03
2018-11-05T08:28:40.620Z,17.60
2018-11-05T08:31:12.640Z,19.33
2018-11-05T08:33:44.642Z,18.57
2018-11-05T08:36:16.696Z,19.37
2018-11-05T08:38:48.686Z,15.27
2018-11-05T08:41:20.696Z,16.40
2018-11-05T08:43:52.707Z,16.70
2018-11-05T08:46:24.694Z,18.40
2018-11-05T08:48:56.679Z,14.10
2018-11-05T08:51:28.917Z,17.30
2018-11-05T08:54:00.689Z,16.80
2018-11-05T08:56:32.611Z,18.50
2018-11-05T08:59:04.695Z,14.33
2018-11-05T09:01:36.718Z,17.50
2018-11-05T09:04:08.726Z,13.97
2018-11-05T09:06:40.750Z,17.40
2018-11-05T09:09:12.809Z,15.80
2018-11-05T09:11:44.940Z,13.63
2018-11-05T09:14:16.859Z,18.20
2018-11-05T09:16:48.839Z,17.20
2018-11-05T09:19:20.865Z,14.33
2018-11-05T09:21:52.870Z,12.23
2018-11-05T09:24:24.859Z,15.67
2018-11-05T09:26:56.826Z,14.90
2018-11-05T09:29:28.823Z,14.90
2018-11-05T09:32:00.839Z,13.77
2018-11-05T09:34:32.847Z,13.83
2018-11-05T09:37:04.897Z,12.70
2018-11-05T09:39:36.875Z,14.20
2018-11-05T09:42:08.878Z,14.57
2018-11-05T09:44:40.871Z,13.70
2018-11-05T09:47:12.871Z,13.60
2018-11-05T09:49:44.840Z,13.80
2018-11-05T09:52:16.896Z,15.77
2018-11-05T09:54:49.102Z,12.57
2018-11-05T09:57:21.255Z,14.03
2018-11-05T09:59:53.119Z,18.83
2018-11-05T10:02:29.715Z,15.40
2018-11-05T10:05:02.009Z,14.53
2018-11-05T10:07:33.867Z,13.73
2018-11-05T10:10:06.995Z,14.30
2018-11-05T10:12:39.654Z,20.33
2018-11-05T10:15:12.572Z,13.60
2018-11-05T10:17:45.299Z,18.97
2018-11-05T10:20:20.615Z,14.00
2018-11-05T10:22:58.212Z,17.70
2018-11-05T10:25:30.308Z,20.23
2018-11-05T10:28:03.565Z,14.97
2018-11-05T10:30:35.633Z,19.47
2018-11-05T10:33:07.805Z,14.10
2018-11-05T10:35:45.555Z,16.93
2018-11-05T10:38:17.682Z,14.63
2018-11-05T10:40:49.744Z,16.57
2018-11-05T10:43:21.829Z,14.10
2018-11-05T10:45:53.847Z,15.20
2018-11-05T10:48:25.888Z,13.63
2018-11-05T10:50:57.979Z,14.07
2018-11-05T10:53:29.928Z,14.87
2018-11-05T10:56:02.203Z,16.97
2018-11-05T10:58:34.228Z,14.03
2018-11-05T11:01:13.547Z,13.70
2018-11-05T11:03:51.479Z,14.20
2018-11-05T11:06:23.471Z,15.40
2018-11-05T11:08:55.555Z,14.93
2018-11-05T11:11:27.575Z,14.13
2018-11-05T11:13:59.599Z,18.47
2018-11-05T11:16:31.647Z,12.87
2018-11-05T11:19:03.767Z,14.17
2018-11-05T11:21:35.804Z,12.87
2018-11-05T11:24:07.955Z,12.40
2018-11-05T11:26:39.982Z,13.90
2018-11-05T11:29:12.141Z,14.53
2018-11-05T11:31:44.048Z,15.60
2018-11-05T11:34:16.119Z,15.50
2018-11-05T11:36:48.215Z,14.73
2018-11-05T11:39:20.159Z,19.30
2018-11-05T11:41:52.187Z,13.90
2018-11-05T11:44:24.193Z,14.37
2018-11-05T11:46:56.203Z,13.77
2018-11-05T11:49:28.307Z,14.47
2018-11-05T11:52:00.299Z,16.10
2018-11-05T11:54:32.322Z,18.27
2018-11-05T11:57:04.562Z,18.00
2018-11-05T11:59:36.644Z,14.57
2018-11-05T12:02:13.571Z,14.43
2018-11-05T12:04:45.637Z,11.63
2018-11-05T12:07:18.663Z,13.17
2018-11-05T12:09:50.736Z,10.70
2018-11-05T12:12:22.779Z,10.33
2018-11-05T12:14:54.866Z,11.73
2018-11-05T12:17:26.814Z,14.63
2018-11-05T12:19:58.831Z,14.07
2018-11-05T12:22:30.834Z,11.27
2018-11-05T12:25:02.994Z,11.60
2018-11-05T12:27:35.051Z,10.67
2018-11-05T12:30:15.259Z,12.23
2018-11-05T12:32:48.133Z,12.70
2018-11-05T12:35:20.143Z,9.47
2018-11-05T12:37:52.756Z,13.97
2018-11-05T12:40:24.751Z,15.20
2018-11-05T12:42:56.756Z,11.63
2018-11-05T12:45:28.839Z,11.73
2018-11-05T12:48:00.891Z,14.23
2018-11-05T12:50:32.959Z,9.77
2018-11-05T12:53:05.164Z,8.87
2018-11-05T12:55:37.219Z,11.50
2018-11-05T12:58:09.172Z,10.30
2018-11-05T13:00:41.164Z,12.47
2018-11-05T13:03:13.170Z,9.20
2018-11-05T13:05:45.175Z,11.47
2018-11-05T13:08:17.183Z,11.57
2018-11-05T13:10:49.190Z,8.80
2018-11-05T13:13:21.275Z,11.13
2018-11-05T13:15:53.273Z,10.20
2018-11-05T13:18:25.280Z,9.40
2018-11-05T13:20:57.301Z,10.23
2018-11-05T13:23:37.531Z,10.80
2018-11-05T13:26:09.797Z,9.43
2018-11-05T13:28:41.815Z,7.33
2018-11-05T13:31:13.856Z,8.60
2018-11-05T13:33:45.851Z,11.17
2018-11-05T13:36:17.863Z,9.73
2018-11-05T13:38:49.914Z,10.43
2018-11-05T13:41:22.010Z,10.77
2018-11-05T13:43:54.021Z,9.27
2018-11-05T13:46:26.532Z,8.77
2018-11-05T13:48:58.568Z,11.77
2018-11-05T13:51:30.267Z,9.60
2018-11-05T13:54:02.404Z,10.97
2018-11-05T13:56:34.374Z,12.33
2018-11-05T13:59:06.378Z,10.60
2018-11-05T14:01:38.414Z,12.33
2018-11-05T14:04:10.404Z,11.23
2018-11-05T14:06:43.412Z,7.50
2018-11-05T14:09:15.438Z,8.73
2018-11-05T14:11:47.492Z,11.40
2018-11-05T14:14:19.506Z,7.80
2018-11-05T14:16:51.565Z,10.37
2018-11-05T14:19:23.588Z,11.50
2018-11-05T14:21:55.598Z,8.60
2018-11-05T14:24:27.603Z,9.70
2018-11-05T14:26:59.616Z,11.70
2018-11-05T14:29:32.033Z,9.40
2018-11-05T14:32:03.905Z,10.93
2018-11-05T14:34:35.944Z,11.00
2018-11-05T14:37:08.091Z,10.90
2018-11-05T14:39:40.051Z,10.13
2018-11-05T14:42:12.059Z,9.60
2018-11-05T14:44:44.064Z,8.33
2018-11-05T14:47:16.097Z,10.27
2018-11-05T14:49:48.117Z,10.77
2018-11-05T14:52:20.134Z,11.10
2018-11-05T14:54:52.229Z,12.00
2018-11-05T14:57:24.332Z,9.20
2018-11-05T14:59:56.299Z,10.10
2018-11-05T15:02:34.067Z,12.20
2018-11-05T15:05:06.587Z,12.07
2018-11-05T15:07:39.283Z,8.73
2018-11-05T15:10:13.616Z,10.03
2018-11-05T15:12:45.623Z,12.63
2018-11-05T15:15:18.227Z,10.30
2018-11-05T15:17:50.243Z,11.30
2018-11-05T15:20:22.967Z,9.73
2018-11-05T15:22:54.927Z,9.50
2018-11-05T15:25:26.989Z,12.70
2018-11-05T15:27:59.009Z,9.23
2018-11-05T15:30:31.021Z,13.20
2018-11-05T15:33:03.049Z,8.70
2018-11-05T15:35:35.099Z,10.47
2018-11-05T15:38:07.131Z,10.57
2018-11-05T15:40:39.131Z,9.53
2018-11-05T15:43:11.153Z,10.13
2018-11-05T15:45:43.182Z,8.60
2018-11-05T15:48:15.208Z,11.30
2018-11-05T15:50:47.248Z,7.80
2018-11-05T15:53:19.650Z,11.40
2018-11-05T15:55:51.329Z,11.63
2018-11-05T15:58:23.334Z,10.13
2018-11-05T16:00:55.383Z,13.43
2018-11-05T16:03:27.387Z,10.30
2018-11-05T16:05:59.367Z,11.43
2018-11-05T16:08:31.372Z,8.87
2018-11-05T16:11:03.389Z,13.90
2018-11-05T16:13:35.431Z,11.40
2018-11-05T16:16:07.465Z,10.47
2018-11-05T16:18:39.744Z,16.17
2018-11-05T16:21:11.747Z,8.80
2018-11-05T16:23:43.792Z,11.70
2018-11-05T16:26:15.815Z,12.47
2018-11-05T16:28:47.931Z,9.30
2018-11-05T16:31:19.945Z,10.50
2018-11-05T16:33:51.961Z,9.60
2018-11-05T16:36:23.972Z,10.47
2018-11-05T16:38:56.018Z,10.37
2018-11-05T16:42:31.232Z,12.50
2018-11-05T16:45:03.424Z,9.93
2018-11-05T16:47:35.769Z,11.70
2018-11-05T16:50:13.749Z,13.63
2018-11-05T16:52:45.803Z,9.70
2018-11-05T16:55:17.899Z,11.80
2018-11-05T16:57:49.961Z,12.60
2018-11-05T17:00:21.971Z,9.97
2018-11-05T17:02:54.059Z,12.83
2018-11-05T17:05:26.139Z,12.53
2018-11-05T17:07:58.184Z,11.03
2018-11-05T17:10:30.189Z,10.53
2018-11-05T17:13:02.228Z,10.77
2018-11-05T17:15:34.211Z,13.60
2018-11-05T17:18:06.223Z,17.43
2018-11-05T17:20:38.238Z,13.60
2018-11-05T17:23:10.235Z,10.90
2018-11-05T17:25:42.239Z,15.17
2018-11-05T17:28:14.287Z,12.87
2018-11-05T17:30:46.427Z,11.30
2018-11-05T17:33:18.452Z,10.60
2018-11-05T17:35:50.520Z,11.33
2018-11-05T17:38:22.695Z,13.90
2018-11-05T17:40:54.727Z,14.10
2018-11-05T17:43:26.754Z,12.13
2018-11-05T17:45:58.793Z,11.07
2018-11-05T17:48:30.884Z,14.07
2018-11-05T17:51:02.895Z,12.17
2018-11-05T17:53:35.124Z,15.37
2018-11-05T17:56:07.173Z,13.17
2018-11-05T17:58:39.201Z,16.70
2018-11-05T18:01:11.285Z,13.57
2018-11-05T18:03:43.385Z,12.83
2018-11-05T18:06:15.321Z,12.50
2018-11-05T18:08:47.467Z,14.30
2018-11-05T18:11:19.474Z,13.87
2018-11-05T18:13:51.609Z,13.90
2018-11-05T18:16:23.624Z,15.57
2018-11-05T18:18:55.736Z,14.87
2018-11-05T18:21:27.950Z,14.93
2018-11-05T18:24:00.228Z,14.73
2018-11-05T18:26:32.257Z,15.43
2018-11-05T18:29:04.613Z,15.17
2018-11-05T18:31:36.895Z,16.63
2018-11-05T18:34:08.943Z,16.53
2018-11-05T18:36:40.991Z,13.53
2018-11-05T18:39:13.039Z,15.60
2018-11-05T18:41:45.143Z,16.63
2018-11-05T18:44:17.201Z,18.27
2018-11-05T18:46:49.280Z,14.13
2018-11-05T18:49:21.336Z,13.23
2018-11-05T18:51:53.560Z,22.10
2018-11-05T18:54:25.582Z,15.63
2018-11-05T18:56:57.651Z,16.30
2018-11-05T18:59:29.759Z,17.87
2018-11-05T19:02:02.267Z,15.73
2018-11-05T19:04:34.306Z,17.90
2018-11-05T19:07:06.304Z,14.73
2018-11-05T19:09:38.431Z,19.67
2018-11-05T19:12:10.404Z,18.40
2018-11-05T19:14:42.428Z,19.63
2018-11-05T19:17:14.471Z,16.73
2018-11-05T19:19:46.505Z,19.87
2018-11-05T19:22:18.587Z,18.70
2018-11-05T19:24:50.594Z,18.17
2018-11-05T19:27:22.756Z,19.53
2018-11-05T19:29:54.779Z,20.47
2018-11-05T19:32:26.778Z,18.87
2018-11-05T19:34:58.815Z,19.13
2018-11-05T19:37:30.827Z,21.67
2018-11-05T19:40:03.581Z,18.77
2018-11-05T19:42:35.883Z,20.23
2018-11-05T19:45:09.437Z,20.20
2018-11-05T19:47:41.503Z,23.40
2018-11-05T19:50:15.211Z,19.30
2018-11-05T19:52:48.437Z,19.70
2018-11-05T19:55:20.666Z,20.50
2018-11-05T19:57:53.050Z,15.83
2018-11-05T20:00:27.037Z,18.60
2018-11-05T20:03:00.035Z,22.20
2018-11-05T20:05:32.124Z,20.13
2018-11-05T20:08:04.090Z,18.30
2018-11-05T20:10:36.133Z,23.27
2018-11-05T20:13:08.118Z,19.40
2018-11-05T20:15:40.328Z,19.83
2018-11-05T20:18:12.229Z,22.17
2018-11-05T20:20:44.232Z,17.47
2018-11-05T20:23:16.238Z,15.60
2018-11-05T20:25:48.287Z,20.30
2018-11-05T20:28:20.330Z,18.00
2018-11-05T20:30:52.412Z,16.40
2018-11-05T20:33:24.686Z,18.93
2018-11-05T20:35:56.442Z,17.40
2018-11-05T20:38:28.453Z,19.97
2018-11-05T20:41:00.461Z,18.63
2018-11-05T20:43:32.460Z,17.83
2018-11-05T20:46:04.547Z,22.00
2018-11-05T20:48:36.608Z,19.00
2018-11-05T20:51:08.694Z,20.70
2018-11-05T20:53:40.714Z,20.97
2018-11-05T20:56:12.739Z,23.03
2018-11-05T20:58:44.746Z,20.83
2018-11-05T21:01:16.759Z,20.20
2018-11-05T21:03:48.768Z,20.90
2018-11-05T21:06:20.793Z,19.70
2018-11-05T21:08:52.897Z,22.10
2018-11-05T21:11:24.912Z,21.70
2018-11-05T21:13:56.922Z,19.80
2018-11-05T21:16:28.911Z,20.77
2018-11-05T21:19:00.903Z,24.77
2018-11-05T21:21:33.011Z,22.53
2018-11-05T21:24:04.960Z,17.63
2018-11-05T21:26:37.132Z,19.20
2018-11-05T21:29:09.011Z,23.40
2018-11-05T21:31:41.006Z,22.65
2018-11-05T21:34:13.156Z,19.52
2018-11-05T21:36:45.202Z,23.77
2018-11-05T21:39:17.240Z,22.33
2018-11-05T21:41:49.260Z,22.62
2018-11-05T21:44:21.319Z,20.45
2018-11-05T21:46:53.374Z,22.20
2018-11-05T21:49:25.371Z,19.87
2018-11-05T21:51:57.425Z,21.68
2018-11-05T21:54:29.501Z,26.07
2018-11-05T21:57:01.503Z,23.32
2018-11-05T21:59:33.507Z,26.05
2018-11-05T22:02:05.511Z,22.13
2018-11-05T22:04:37.726Z,23.30
2018-11-05T22:07:09.811Z,24.90
2018-11-05T22:09:41.827Z,23.10
2018-11-05T22:12:13.855Z,23.67
2018-11-05T22:14:45.977Z,25.32
2018-11-05T22:17:17.993Z,21.57
2018-11-05T22:19:49.994Z,21.17
2018-11-05T22:22:22.028Z,25.43
2018-11-05T22:24:54.131Z,21.00
2018-11-05T22:27:26.371Z,28.30
2018-11-05T22:29:59.194Z,22.85
2018-11-05T22:32:31.251Z,25.35
2018-11-05T22:35:03.355Z,21.25
2018-11-05T22:37:35.695Z,26.12
2018-11-05T22:40:09.864Z,22.60
2018-11-05T22:42:41.989Z,21.35
2018-11-05T22:45:14.664Z,23.90
2018-11-05T22:47:46.975Z,24.50
2018-11-05T22:50:19.027Z,19.95
2018-11-05T22:52:50.983Z,22.95
2018-11-05T22:55:23.022Z,24.07
2018-11-05T22:57:55.022Z,21.55
2018-11-05T23:00:32.804Z,22.10
2018-11-05T23:03:10.387Z,23.87
2018-11-05T23:05:42.391Z,24.00
2018-11-05T23:08:14.549Z,22.60
2018-11-05T23:10:46.536Z,20.03
2018-11-05T23:13:18.524Z,23.05
2018-11-05T23:15:50.581Z,21.67
2018-11-05T23:18:22.615Z,24.45
2018-11-05T23:20:54.612Z,23.52
2018-11-05T23:23:26.701Z,21.30
2018-11-05T23:25:58.727Z,18.43
2018-11-05T23:28:30.732Z,21.48
2018-11-05T23:31:02.799Z,23.83
2018-11-05T23:33:34.967Z,20.50
2018-11-05T23:36:06.870Z,21.57
2018-11-05T23:38:38.927Z,22.85
2018-11-05T23:41:11.015Z,19.82
2018-11-05T23:43:42.992Z,17.75
2018-11-05T23:46:14.999Z,21.00
2018-11-05T23:48:46.986Z,18.48
2018-11-05T23:51:19.080Z,21.00
2018-11-05T23:53:51.107Z,20.12
2018-11-05T23:56:23.172Z,18.37
2018-11-05T23:58:55.147Z,20.50
